createdAt,value
2022-11-25T00:01:07.134Z,83.91
2022-11-25T00:03:36.125Z,83.57
2022-11-25T00:06:12.965Z,83.77
2022-11-25T00:08:41.339Z,83.43
2022-11-25T00:11:09.514Z,82.73
2022-11-25T00:13:37.393Z,82.47
2022-11-25T00:16:06.158Z,82.57
2022-11-25T00:18:34.065Z,82.17
2022-11-25T00:21:05.949Z,81.55
2022-11-25T00:23:35.276Z,81.70
2022-11-25T00:26:06.953Z,81.61
2022-11-25T00:28:34.918Z,81.50
2022-11-25T00:31:06.909Z,81.25
2022-11-25T00:33:34.975Z,80.52
2022-11-25T00:36:03.386Z,81.21
2022-11-25T00:38:31.338Z,80.90
2022-11-25T00:41:14.484Z,80.64
2022-11-25T00:43:59.988Z,80.49
2022-11-25T00:46:27.972Z,80.66
2022-11-25T00:48:55.801Z,80.32
2022-11-25T00:51:23.671Z,80.01
2022-11-25T00:53:55.961Z,79.85
2022-11-25T00:56:28.056Z,79.74
2022-11-25T00:58:55.868Z,80.13
2022-11-25T01:01:23.734Z,79.63
2022-11-25T01:03:51.906Z,79.98
2022-11-25T01:06:19.725Z,79.58
2022-11-25T01:08:47.702Z,79.35
2022-11-25T01:11:16.431Z,80.20
2022-11-25T01:13:45.591Z,80.08
2022-11-25T01:16:14.477Z,80.70
2022-11-25T01:18:42.855Z,80.57
2022-11-25T01:21:12.363Z,79.47
2022-11-25T01:23:40.657Z,79.44
2022-11-25T01:26:09.679Z,79.71
2022-11-25T01:28:37.527Z,79.32
2022-11-25T01:31:08.648Z,79.07
2022-11-25T01:33:36.740Z,79.37
2022-11-25T01:36:05.269Z,79.46
2022-11-25T01:38:33.871Z,79.29
2022-11-25T01:41:02.060Z,79.60
2022-11-25T01:43:29.980Z,79.53
2022-11-25T01:45:59.329Z,79.90
2022-11-25T01:48:30.207Z,80.11
2022-11-25T01:50:58.162Z,79.87
2022-11-25T01:53:26.128Z,79.96
2022-11-25T01:55:57.446Z,80.05
2022-11-25T01:58:28.274Z,80.75
2022-11-25T02:00:56.148Z,80.25
2022-11-25T02:03:25.830Z,80.50
2022-11-25T02:05:58.499Z,80.29
2022-11-25T02:08:27.396Z,79.78
2022-11-25T02:10:56.373Z,80.12
2022-11-25T02:13:24.596Z,80.20
2022-11-25T02:15:52.423Z,80.05
2022-11-25T02:18:20.213Z,80.11
2022-11-25T02:20:48.103Z,80.43
2022-11-25T02:23:22.100Z,80.46
2022-11-25T02:25:51.387Z,80.52
2022-11-25T02:28:20.004Z,80.31
2022-11-25T02:30:48.282Z,80.45
2022-11-25T02:33:16.493Z,80.30
2022-11-25T02:35:45.952Z,81.08
2022-11-25T02:38:16.302Z,80.93
2022-11-25T02:40:46.869Z,80.47
2022-11-25T02:43:16.539Z,80.56
2022-11-25T02:45:53.189Z,80.83
2022-11-25T02:48:34.487Z,80.55
2022-11-25T02:51:11.631Z,81.51
2022-11-25T02:53:39.974Z,80.82
2022-11-25T02:56:08.582Z,80.48
2022-11-25T02:58:37.779Z,80.63
2022-11-25T03:01:05.905Z,80.18
2022-11-25T03:03:34.022Z,80.21
2022-11-25T03:06:02.079Z,80.03
2022-11-25T03:08:30.091Z,80.24
2022-11-25T03:10:57.890Z,80.02
2022-11-25T03:13:26.024Z,80.57
2022-11-25T03:15:55.356Z,80.46
2022-11-25T03:18:23.355Z,81.20
2022-11-25T03:20:52.978Z,82.20
2022-11-25T03:23:21.210Z,82.83
2022-11-25T03:25:49.004Z,83.22
2022-11-25T03:28:16.813Z,83.63
2022-11-25T03:30:44.800Z,84.31
2022-11-25T03:33:13.976Z,84.82
2022-11-25T03:35:41.884Z,84.86
2022-11-25T03:38:09.729Z,85.24
2022-11-25T03:40:37.589Z,85.61
2022-11-25T03:43:05.582Z,86.63
2022-11-25T03:45:33.419Z,86.88
2022-11-25T03:48:01.236Z,87.34
2022-11-25T03:50:30.451Z,86.98
2022-11-25T03:52:58.272Z,87.56
2022-11-25T03:55:26.276Z,88.21
2022-11-25T03:57:54.186Z,88.00
2022-11-25T04:00:22.052Z,87.85
2022-11-25T04:02:49.935Z,88.21
2022-11-25T04:05:18.012Z,88.54
2022-11-25T04:07:47.416Z,88.43
2022-11-25T04:10:15.260Z,89.05
2022-11-25T04:12:48.166Z,88.98
2022-11-25T04:15:16.867Z,89.66
2022-11-25T04:17:44.767Z,89.54
2022-11-25T04:20:13.330Z,90.25
2022-11-25T04:22:41.266Z,90.79
2022-11-25T04:25:11.284Z,91.16
2022-11-25T04:27:39.307Z,91.07
2022-11-25T04:30:08.011Z,91.60
2022-11-25T04:32:37.487Z,91.96
2022-11-25T04:35:05.652Z,92.85
2022-11-25T04:37:33.505Z,92.95
2022-11-25T04:40:01.470Z,93.04
2022-11-25T04:42:36.393Z,92.96
2022-11-25T04:45:22.536Z,92.78
2022-11-25T04:47:51.983Z,93.25
2022-11-25T04:50:21.748Z,92.81
2022-11-25T04:52:49.603Z,92.84
2022-11-25T04:55:17.562Z,92.83
2022-11-25T04:57:46.725Z,93.10
2022-11-25T05:00:14.068Z,92.69
2022-11-25T05:02:42.010Z,92.42
2022-11-25T05:05:10.190Z,92.35
2022-11-25T05:07:38.602Z,92.45
2022-11-25T05:10:07.244Z,92.63
2022-11-25T05:12:35.605Z,92.33
2022-11-25T05:15:05.845Z,92.73
2022-11-25T05:17:33.645Z,92.90
2022-11-25T05:20:01.446Z,93.21
2022-11-25T05:22:30.069Z,93.68
2022-11-25T05:24:58.467Z,93.91
2022-11-25T05:27:27.584Z,93.49
2022-11-25T05:29:56.316Z,93.53
2022-11-25T05:32:25.768Z,93.80
2022-11-25T05:34:53.595Z,94.42
2022-11-25T05:37:24.548Z,94.16
2022-11-25T05:39:52.905Z,94.60
2022-11-25T05:42:20.742Z,94.74
2022-11-25T05:44:48.573Z,94.84
2022-11-25T05:47:16.406Z,94.86
2022-11-25T05:49:45.599Z,95.20
2022-11-25T05:52:13.575Z,94.67
2022-11-25T05:54:41.495Z,95.01
2022-11-25T05:57:09.339Z,93.97
2022-11-25T05:59:37.177Z,94.39
2022-11-25T06:02:05.033Z,94.14
2022-11-25T06:04:33.028Z,94.37
2022-11-25T06:07:02.231Z,94.09
2022-11-25T06:09:30.053Z,93.92
2022-11-25T06:11:57.888Z,93.44
2022-11-25T06:14:25.730Z,94.03
2022-11-25T06:16:53.796Z,93.89
2022-11-25T06:19:21.601Z,94.40
2022-11-25T06:21:49.625Z,93.99
2022-11-25T06:24:18.727Z,94.32
2022-11-25T06:26:46.519Z,94.58
2022-11-25T06:29:14.503Z,94.71
2022-11-25T06:31:42.419Z,94.67
2022-11-25T06:34:10.367Z,94.59
2022-11-25T06:36:38.209Z,95.36
2022-11-25T06:39:06.050Z,95.05
2022-11-25T06:41:35.415Z,94.64
2022-11-25T06:44:03.278Z,94.60
2022-11-25T06:46:31.443Z,94.46
2022-11-25T06:49:14.264Z,94.53
2022-11-25T06:51:42.360Z,95.16
2022-11-25T06:54:10.407Z,94.77
2022-11-25T06:56:40.296Z,95.02
2022-11-25T06:59:08.612Z,94.84
2022-11-25T07:01:36.487Z,95.10
2022-11-25T07:04:05.613Z,94.66
2022-11-25T07:06:33.516Z,94.45
2022-11-25T07:09:01.401Z,94.53
2022-11-25T07:11:30.619Z,94.64
2022-11-25T07:14:00.644Z,94.43
2022-11-25T07:16:28.995Z,94.95
2022-11-25T07:18:56.969Z,94.63
2022-11-25T07:21:26.007Z,94.88
2022-11-25T07:23:54.187Z,94.11
2022-11-25T07:26:23.222Z,94.46
2022-11-25T07:28:51.860Z,94.49
2022-11-25T07:31:24.758Z,94.29
2022-11-25T07:34:03.352Z,94.97
2022-11-25T07:36:32.314Z,94.61
2022-11-25T07:39:01.797Z,94.87
2022-11-25T07:41:30.123Z,95.16
2022-11-25T07:44:00.340Z,95.39
2022-11-25T07:46:31.809Z,95.44
2022-11-25T07:49:00.892Z,95.08
2022-11-25T07:51:29.744Z,95.25
2022-11-25T07:53:58.428Z,95.00
2022-11-25T07:56:32.439Z,95.39
2022-11-25T07:59:00.315Z,95.50
2022-11-25T08:01:29.953Z,96.04
2022-11-25T08:03:58.271Z,96.14
2022-11-25T08:06:27.819Z,96.72
2022-11-25T08:08:56.379Z,96.78
2022-11-25T08:11:25.023Z,96.87
2022-11-25T08:13:52.856Z,97.18
2022-11-25T08:16:21.762Z,96.87
2022-11-25T08:18:51.399Z,96.89
2022-11-25T08:21:26.025Z,96.53
2022-11-25T08:23:54.266Z,96.52
2022-11-25T08:26:24.180Z,96.07
2022-11-25T08:28:52.479Z,95.89
2022-11-25T08:31:26.225Z,95.45
2022-11-25T08:33:56.002Z,95.48
2022-11-25T08:36:24.293Z,94.63
2022-11-25T08:38:54.138Z,93.58
2022-11-25T08:41:23.485Z,94.34
2022-11-25T08:43:51.449Z,85.47
2022-11-25T08:46:21.862Z,82.11
2022-11-25T08:48:50.890Z,80.96
2022-11-25T08:51:21.803Z,77.06
2022-11-25T08:53:51.109Z,70.73
2022-11-25T08:56:26.077Z,69.50
2022-11-25T08:58:54.590Z,68.35
2022-11-25T09:01:23.351Z,60.74
2022-11-25T09:03:52.913Z,57.51
2022-11-25T09:06:22.264Z,58.52
2022-11-25T09:08:50.094Z,59.37
2022-11-25T09:11:18.365Z,57.00
2022-11-25T09:13:46.280Z,54.16
2022-11-25T09:16:15.146Z,56.65
2022-11-25T09:18:43.026Z,60.95
2022-11-25T09:21:11.737Z,62.58
2022-11-25T09:23:41.050Z,54.98
2022-11-25T09:26:09.064Z,49.72
2022-11-25T09:28:37.305Z,45.47
2022-11-25T09:31:08.585Z,46.18
2022-11-25T09:33:36.795Z,44.26
2022-11-25T09:36:06.049Z,43.49
2022-11-25T09:38:35.677Z,39.92
2022-11-25T09:41:09.664Z,43.32
2022-11-25T09:44:04.589Z,43.02
2022-11-25T09:46:42.806Z,43.08
2022-11-25T09:49:15.367Z,38.90
2022-11-25T09:51:49.975Z,38.17
2022-11-25T09:54:22.496Z,37.12
2022-11-25T09:56:54.270Z,34.95
2022-11-25T09:59:26.034Z,34.31
2022-11-25T10:01:55.484Z,33.22
2022-11-25T10:04:27.083Z,34.32
2022-11-25T10:06:58.072Z,40.98
2022-11-25T10:09:26.916Z,46.64
2022-11-25T10:11:57.720Z,45.14
2022-11-25T10:14:30.109Z,42.18
2022-11-25T10:17:01.234Z,44.80
2022-11-25T10:19:37.303Z,48.75
2022-11-25T10:22:13.071Z,47.96
2022-11-25T10:24:43.735Z,40.87
2022-11-25T10:27:18.892Z,37.76
2022-11-25T10:29:50.868Z,36.45
2022-11-25T10:32:23.256Z,38.33
2022-11-25T10:34:53.667Z,38.49
2022-11-25T10:37:26.528Z,40.78
2022-11-25T10:39:56.573Z,45.53
2022-11-25T10:42:26.936Z,50.58
2022-11-25T10:44:55.872Z,47.81
2022-11-25T10:47:30.005Z,45.51
2022-11-25T10:50:04.743Z,48.23
2022-11-25T10:52:36.247Z,45.66
2022-11-25T10:55:10.438Z,42.20
2022-11-25T10:57:39.904Z,34.93
2022-11-25T11:00:14.112Z,33.87
2022-11-25T11:02:48.303Z,30.41
2022-11-25T11:05:19.726Z,29.87
2022-11-25T11:07:47.769Z,28.99
2022-11-25T11:10:22.122Z,28.08
2022-11-25T11:12:59.177Z,28.46
2022-11-25T11:15:31.374Z,26.94
2022-11-25T11:18:00.643Z,25.58
2022-11-25T11:20:30.266Z,26.00
2022-11-25T11:23:07.019Z,27.60
2022-11-25T11:25:37.581Z,31.08
2022-11-25T11:28:27.346Z,29.44
2022-11-25T11:30:57.742Z,28.93
2022-11-25T11:33:37.751Z,30.03
2022-11-25T11:36:11.611Z,31.08
2022-11-25T11:38:45.988Z,27.68
2022-11-25T11:41:16.870Z,28.58
2022-11-25T11:43:56.468Z,29.24
2022-11-25T11:46:29.776Z,31.16
2022-11-25T11:49:03.779Z,30.72
2022-11-25T11:51:40.738Z,29.50
2022-11-25T11:54:11.014Z,29.03
2022-11-25T11:56:40.775Z,32.26
2022-11-25T11:59:32.284Z,33.27
2022-11-25T12:02:10.260Z,32.21
2022-11-25T12:04:41.512Z,32.15
2022-11-25T12:07:15.786Z,33.27
2022-11-25T12:09:46.152Z,37.28
2022-11-25T12:12:16.267Z,40.63
2022-11-25T12:14:47.413Z,40.28
2022-11-25T12:17:19.040Z,43.39
2022-11-25T12:19:51.169Z,45.19
2022-11-25T12:22:22.337Z,47.66
2022-11-25T12:24:52.225Z,49.66
2022-11-25T12:27:23.340Z,51.26
2022-11-25T12:29:54.099Z,54.72
2022-11-25T12:32:39.092Z,56.53
2022-11-25T12:35:14.793Z,57.08
2022-11-25T12:37:46.562Z,57.68
2022-11-25T12:40:16.376Z,58.68
2022-11-25T12:42:45.188Z,59.67
2022-11-25T12:45:16.666Z,59.67
2022-11-25T12:47:46.243Z,60.31
2022-11-25T12:50:17.054Z,61.46
2022-11-25T12:52:50.711Z,61.63
2022-11-25T12:55:20.848Z,61.63
2022-11-25T12:58:07.111Z,61.93
2022-11-25T13:00:43.815Z,62.60
2022-11-25T13:03:26.738Z,63.83
2022-11-25T13:06:10.517Z,64.15
2022-11-25T13:08:51.427Z,64.40
2022-11-25T13:11:30.415Z,64.94
2022-11-25T13:14:00.691Z,65.18
2022-11-25T13:16:29.594Z,65.55
2022-11-25T13:18:59.011Z,65.52
2022-11-25T13:21:28.930Z,66.28
2022-11-25T13:23:58.498Z,66.61
2022-11-25T13:26:47.688Z,67.17
2022-11-25T13:29:34.462Z,66.76
2022-11-25T13:32:03.247Z,67.37
2022-11-25T13:34:32.958Z,66.60
2022-11-25T13:37:01.755Z,66.10
2022-11-25T13:39:31.035Z,66.83
2022-11-25T13:42:00.799Z,67.11
2022-11-25T13:44:32.246Z,66.85
2022-11-25T13:47:02.825Z,66.99
2022-11-25T13:49:39.511Z,67.45
2022-11-25T13:52:26.980Z,67.38
2022-11-25T13:54:56.576Z,67.87
2022-11-25T13:57:28.530Z,68.22
2022-11-25T13:59:57.822Z,68.33
2022-11-25T14:02:45.070Z,68.73
2022-11-25T14:05:37.452Z,68.76
2022-11-25T14:08:11.982Z,69.01
2022-11-25T14:10:45.772Z,68.78
2022-11-25T14:13:24.511Z,69.34
2022-11-25T14:16:06.551Z,68.66
2022-11-25T14:19:28.204Z,68.15
2022-11-25T14:21:48.878Z,68.65
2022-11-25T14:24:24.527Z,68.56
2022-11-25T14:26:52.879Z,68.71
2022-11-25T14:29:22.411Z,69.13
2022-11-25T14:31:52.150Z,69.60
2022-11-25T14:34:21.956Z,69.24
2022-11-25T14:36:51.818Z,69.31
2022-11-25T14:39:22.899Z,69.70
2022-11-25T14:41:53.454Z,69.55
2022-11-25T14:44:23.478Z,69.22
2022-11-25T14:46:54.114Z,69.81
2022-11-25T14:49:46.612Z,70.17
2022-11-25T14:52:11.011Z,70.40
2022-11-25T14:54:42.923Z,70.12
2022-11-25T14:57:11.111Z,70.52
2022-11-25T14:59:44.974Z,70.72
2022-11-25T15:02:24.194Z,70.60
2022-11-25T15:04:52.417Z,70.72
2022-11-25T15:07:26.313Z,70.65
2022-11-25T15:09:58.902Z,70.98
2022-11-25T15:12:29.860Z,71.15
2022-11-25T15:14:58.014Z,71.21
2022-11-25T15:17:27.871Z,71.17
2022-11-25T15:19:57.496Z,71.21
2022-11-25T15:22:25.682Z,71.31
2022-11-25T15:24:55.851Z,71.86
2022-11-25T15:27:26.862Z,72.40
2022-11-25T15:29:55.325Z,72.59
2022-11-25T15:32:25.506Z,73.26
2022-11-25T15:34:54.328Z,73.90
2022-11-25T15:37:23.953Z,74.36
2022-11-25T15:40:09.355Z,74.95
2022-11-25T15:42:38.690Z,75.29
2022-11-25T15:45:10.940Z,75.76
2022-11-25T15:47:38.945Z,76.07
2022-11-25T15:50:14.258Z,76.52
2022-11-25T15:52:45.972Z,76.72
2022-11-25T15:55:19.828Z,77.11
2022-11-25T15:57:52.021Z,76.92
2022-11-25T16:00:21.118Z,77.03
2022-11-25T16:02:51.093Z,77.04
2022-11-25T16:05:25.060Z,77.07
2022-11-25T16:08:00.566Z,76.33
2022-11-25T16:10:29.819Z,76.54
2022-11-25T16:13:21.415Z,75.80
2022-11-25T16:15:52.049Z,75.58
2022-11-25T16:21:11.428Z,75.45
2022-11-25T16:23:41.117Z,75.25
2022-11-25T16:26:15.701Z,75.32
2022-11-25T16:28:52.470Z,74.93
2022-11-25T16:31:20.853Z,75.15
2022-11-25T16:33:48.948Z,76.27
2022-11-25T16:36:20.506Z,77.13
2022-11-25T16:38:52.155Z,78.71
2022-11-25T16:41:21.769Z,78.96
2022-11-25T16:43:55.969Z,80.10
2022-11-25T16:46:28.144Z,81.15
2022-11-25T16:48:56.245Z,81.87
2022-11-25T16:51:24.735Z,82.22
2022-11-25T16:53:52.532Z,82.39
2022-11-25T16:56:24.263Z,82.35
2022-11-25T16:58:54.667Z,82.26
2022-11-25T17:01:24.181Z,82.80
2022-11-25T17:03:52.271Z,83.08
2022-11-25T17:06:22.374Z,83.12
2022-11-25T17:08:51.463Z,83.29
2022-11-25T17:11:22.388Z,83.51
2022-11-25T17:13:51.558Z,83.32
2022-11-25T17:16:22.783Z,83.20
2022-11-25T17:18:51.184Z,83.40
2022-11-25T17:21:19.151Z,83.49
2022-11-25T17:23:50.235Z,83.97
2022-11-25T17:26:22.971Z,84.55
2022-11-25T17:28:52.887Z,84.32
2022-11-25T17:31:22.367Z,84.46
2022-11-25T17:33:50.752Z,83.96
2022-11-25T17:36:18.591Z,83.23
2022-11-25T17:38:46.755Z,83.79
2022-11-25T17:41:15.140Z,83.80
2022-11-25T17:43:43.724Z,83.01
2022-11-25T17:46:12.899Z,82.67
2022-11-25T17:48:53.142Z,82.59
2022-11-25T17:51:20.937Z,82.18
2022-11-25T17:53:49.037Z,81.88
2022-11-25T17:56:19.510Z,82.19
2022-11-25T17:58:47.399Z,81.90
2022-11-25T18:01:15.464Z,82.14
2022-11-25T18:03:43.347Z,81.75
2022-11-25T18:06:12.568Z,81.27
2022-11-25T18:08:40.354Z,80.63
2022-11-25T18:11:08.435Z,80.96
2022-11-25T18:13:37.895Z,81.14
2022-11-25T18:16:06.371Z,81.59
2022-11-25T18:18:34.747Z,81.58
2022-11-25T18:21:02.707Z,81.87
2022-11-25T18:23:31.862Z,81.86
2022-11-25T18:26:01.928Z,81.73
2022-11-25T18:28:30.957Z,81.78
2022-11-25T18:31:00.916Z,81.59
2022-11-25T18:33:29.821Z,81.81
2022-11-25T18:35:58.006Z,81.84
2022-11-25T18:38:27.175Z,81.81
2022-11-25T18:40:56.911Z,81.84
2022-11-25T18:43:27.064Z,82.03
2022-11-25T18:45:55.869Z,82.27
2022-11-25T18:48:25.182Z,82.43
2022-11-25T18:50:54.915Z,82.89
2022-11-25T18:53:26.417Z,83.46
2022-11-25T18:55:56.142Z,83.08
2022-11-25T18:58:25.438Z,83.11
2022-11-25T19:00:55.476Z,83.22
2022-11-25T19:03:25.809Z,83.51
2022-11-25T19:05:55.391Z,83.03
2022-11-25T19:08:23.657Z,82.99
2022-11-25T19:10:52.142Z,82.95
2022-11-25T19:13:23.031Z,82.98
2022-11-25T19:15:51.322Z,83.54
2022-11-25T19:18:24.142Z,84.64
2022-11-25T19:20:52.601Z,83.98
2022-11-25T19:23:25.397Z,83.77
2022-11-25T19:25:54.312Z,84.21
2022-11-25T19:28:23.979Z,84.90
2022-11-25T19:30:56.392Z,86.09
2022-11-25T19:33:28.397Z,86.33
2022-11-25T19:35:56.573Z,86.15
2022-11-25T19:38:26.296Z,86.32
2022-11-25T19:40:54.767Z,86.73
2022-11-25T19:43:26.924Z,87.27
2022-11-25T19:45:55.680Z,87.90
2022-11-25T19:48:25.020Z,87.75
2022-11-25T19:50:59.502Z,88.10
2022-11-25T19:53:33.541Z,88.57
2022-11-25T19:56:04.435Z,88.09
2022-11-25T19:58:35.227Z,87.79
2022-11-25T20:01:04.676Z,87.34
2022-11-25T20:03:33.123Z,87.20
2022-11-25T20:06:01.681Z,87.74
2022-11-25T20:08:29.983Z,88.33
2022-11-25T20:10:58.522Z,88.32
2022-11-25T20:13:26.478Z,88.85
2022-11-25T20:15:56.980Z,89.20
2022-11-25T20:18:28.691Z,88.91
2022-11-25T20:21:01.115Z,88.92
2022-11-25T20:23:30.850Z,89.01
2022-11-25T20:25:59.625Z,89.55
2022-11-25T20:28:29.948Z,90.25
2022-11-25T20:30:59.827Z,89.67
2022-11-25T20:33:28.207Z,89.84
2022-11-25T20:36:07.629Z,90.60
2022-11-25T20:38:37.257Z,91.19
2022-11-25T20:41:06.531Z,90.65
2022-11-25T20:43:36.682Z,90.39
2022-11-25T20:46:06.947Z,89.58
2022-11-25T20:48:37.998Z,89.86
2022-11-25T20:51:07.919Z,89.82
2022-11-25T20:53:36.215Z,90.31
2022-11-25T20:56:04.699Z,91.15
2022-11-25T20:58:32.978Z,91.28
2022-11-25T21:01:01.026Z,91.51
2022-11-25T21:03:30.363Z,92.42
2022-11-25T21:05:58.836Z,92.95
2022-11-25T21:08:30.003Z,93.26
2022-11-25T21:10:59.489Z,93.54
2022-11-25T21:13:28.564Z,93.11
2022-11-25T21:15:57.627Z,92.92
2022-11-25T21:18:25.855Z,92.51
2022-11-25T21:20:57.286Z,92.79
2022-11-25T21:23:28.074Z,92.47
2022-11-25T21:25:57.973Z,93.66
2022-11-25T21:28:27.982Z,93.15
2022-11-25T21:30:55.824Z,93.03
2022-11-25T21:33:23.660Z,92.33
2022-11-25T21:35:51.452Z,92.31
2022-11-25T21:38:23.568Z,92.14
2022-11-25T21:40:53.207Z,92.81
2022-11-25T21:43:22.078Z,93.37
2022-11-25T21:45:53.156Z,92.95
2022-11-25T21:48:22.012Z,93.58
2022-11-25T21:50:50.173Z,93.57
2022-11-25T21:53:18.287Z,94.22
2022-11-25T21:55:47.990Z,93.99
2022-11-25T21:58:18.349Z,94.55
2022-11-25T22:00:47.398Z,94.51
2022-11-25T22:03:16.104Z,94.81
2022-11-25T22:05:44.369Z,95.00
2022-11-25T22:08:12.346Z,95.09
2022-11-25T22:10:41.486Z,95.12
2022-11-25T22:13:13.228Z,94.87
2022-11-25T22:15:41.199Z,95.40
2022-11-25T22:18:14.583Z,95.31
2022-11-25T22:20:42.536Z,94.74
2022-11-25T22:23:14.496Z,95.15
2022-11-25T22:25:42.623Z,95.64
2022-11-25T22:28:13.880Z,96.05
2022-11-25T22:30:43.528Z,95.61
2022-11-25T22:33:11.494Z,95.65
2022-11-25T22:35:40.263Z,96.58
2022-11-25T22:38:13.540Z,96.60
2022-11-25T22:40:41.981Z,96.74
2022-11-25T22:43:14.528Z,96.63
2022-11-25T22:45:44.222Z,96.87
2022-11-25T22:48:15.662Z,96.79
2022-11-25T22:50:45.399Z,96.29
2022-11-25T22:53:14.520Z,96.48
2022-11-25T22:55:42.423Z,96.44
2022-11-25T22:58:11.294Z,96.44
2022-11-25T23:00:41.948Z,96.25
2022-11-25T23:03:16.045Z,96.53
2022-11-25T23:05:44.068Z,96.76
2022-11-25T23:08:13.571Z,96.79
2022-11-25T23:10:41.813Z,97.31
2022-11-25T23:13:09.891Z,96.86
2022-11-25T23:15:38.057Z,97.58
2022-11-25T23:18:08.447Z,96.89
2022-11-25T23:20:38.739Z,96.74
2022-11-25T23:23:13.228Z,97.70
2022-11-25T23:25:41.287Z,97.51
2022-11-25T23:28:09.487Z,97.59
2022-11-25T23:30:37.750Z,97.24
2022-11-25T23:33:10.220Z,97.17
2022-11-25T23:35:39.984Z,96.92
2022-11-25T23:38:11.867Z,97.51
2022-11-25T23:40:39.832Z,97.31
2022-11-25T23:43:12.241Z,97.87
2022-11-25T23:45:46.661Z,97.52
2022-11-25T23:48:14.999Z,97.73
2022-11-25T23:50:44.243Z,97.88
2022-11-25T23:53:16.246Z,97.97
2022-11-25T23:55:44.252Z,98.28
2022-11-25T23:58:15.714Z,98.10
